sensor_id;sensor_type;location;lat;lon;timestamp;P1;durP1;ratioP1;P2;durP2;ratioP2
62110;SDS011;48102;47.526;19.072;2023-12-20T04:39:29;19.92;;;10.73;;
62110;SDS011;48102;47.526;19.072;2023-12-20T04:42:32;26.40;;;14.45;;
62110;SDS011;48102;47.526;19.072;2023-12-20T04:45:35;20.77;;;12.10;;
62110;SDS011;48102;47.526;19.072;2023-12-20T04:48:39;29.27;;;12.90;;
62110;SDS011;48102;47.526;19.072;2023-12-20T04:51:42;21.48;;;12.52;;
62110;SDS011;48102;47.526;19.072;2023-12-20T04:54:45;21.85;;;13.05;;
62110;SDS011;48102;47.526;19.072;2023-12-20T04:57:48;23.60;;;11.88;;
62110;SDS011;48102;47.526;19.072;2023-12-20T05:00:52;19.73;;;10.88;;
62110;SDS011;48102;47.526;19.072;2023-12-20T05:03:55;21.30;;;11.02;;
62110;SDS011;48102;47.526;19.072;2023-12-20T05:06:58;20.35;;;11.40;;
62110;SDS011;48102;47.526;19.072;2023-12-20T05:13:04;22.10;;;11.77;;
62110;SDS011;48102;47.526;19.072;2023-12-20T05:16:07;19.65;;;12.25;;
62110;SDS011;48102;47.526;19.072;2023-12-20T05:19:11;24.25;;;12.02;;
62110;SDS011;48102;47.526;19.072;2023-12-20T05:25:17;23.07;;;13.37;;
62110;SDS011;48102;47.526;19.072;2023-12-20T05:28:20;25.90;;;11.57;;
62110;SDS011;48102;47.526;19.072;2023-12-20T05:34:26;20.23;;;10.90;;
62110;SDS011;48102;47.526;19.072;2023-12-20T05:37:29;21.80;;;13.55;;
62110;SDS011;48102;47.526;19.072;2023-12-20T05:40:32;27.27;;;12.93;;
62110;SDS011;48102;47.526;19.072;2023-12-20T05:43:35;20.85;;;12.65;;
62110;SDS011;48102;47.526;19.072;2023-12-20T05:49:43;23.70;;;11.65;;
62110;SDS011;48102;47.526;19.072;2023-12-20T05:52:46;31.25;;;11.77;;
62110;SDS011;48102;47.526;19.072;2023-12-20T05:55:50;23.65;;;12.55;;
62110;SDS011;48102;47.526;19.072;2023-12-20T06:01:56;21.80;;;12.60;;
62110;SDS011;48102;47.526;19.072;2023-12-20T06:04:59;35.78;;;12.75;;
62110;SDS011;48102;47.526;19.072;2023-12-20T06:08:02;25.75;;;12.95;;
62110;SDS011;48102;47.526;19.072;2023-12-20T06:11:06;24.23;;;12.27;;
62110;SDS011;48102;47.526;19.072;2023-12-20T06:14:09;21.23;;;11.63;;
62110;SDS011;48102;47.526;19.072;2023-12-20T06:20:15;23.23;;;12.18;;
62110;SDS011;48102;47.526;19.072;2023-12-20T06:23:18;28.25;;;14.80;;
62110;SDS011;48102;47.526;19.072;2023-12-20T06:26:21;25.20;;;13.00;;
62110;SDS011;48102;47.526;19.072;2023-12-20T06:32:27;24.10;;;12.90;;
62110;SDS011;48102;47.526;19.072;2023-12-20T06:35:31;25.60;;;14.18;;
62110;SDS011;48102;47.526;19.072;2023-12-20T06:38:38;28.27;;;14.32;;
62110;SDS011;48102;47.526;19.072;2023-12-20T06:41:41;35.45;;;16.65;;
62110;SDS011;48102;47.526;19.072;2023-12-20T06:44:45;26.00;;;15.40;;
62110;SDS011;48102;47.526;19.072;2023-12-20T06:47:49;27.58;;;14.93;;
62110;SDS011;48102;47.526;19.072;2023-12-20T06:50:51;28.85;;;15.65;;
62110;SDS011;48102;47.526;19.072;2023-12-20T06:53:55;29.98;;;15.73;;
62110;SDS011;48102;47.526;19.072;2023-12-20T06:56:58;30.08;;;14.02;;
62110;SDS011;48102;47.526;19.072;2023-12-20T07:00:02;23.00;;;13.75;;
62110;SDS011;48102;47.526;19.072;2023-12-20T07:03:06;28.42;;;13.85;;
62110;SDS011;48102;47.526;19.072;2023-12-20T07:09:12;24.63;;;13.05;;
62110;SDS011;48102;47.526;19.072;2023-12-20T07:12:16;26.80;;;13.85;;
62110;SDS011;48102;47.526;19.072;2023-12-20T07:15:24;34.25;;;14.77;;
62110;SDS011;48102;47.526;19.072;2023-12-20T07:18:27;29.95;;;13.93;;
62110;SDS011;48102;47.526;19.072;2023-12-20T07:21:30;22.73;;;11.90;;
62110;SDS011;48102;47.526;19.072;2023-12-20T07:24:33;30.37;;;13.35;;
62110;SDS011;48102;47.526;19.072;2023-12-20T07:27:37;26.10;;;13.18;;
62110;SDS011;48102;47.526;19.072;2023-12-20T07:30:40;32.05;;;11.95;;
62110;SDS011;48102;47.526;19.072;2023-12-20T07:36:46;27.13;;;11.27;;
62110;SDS011;48102;47.526;19.072;2023-12-20T07:42:52;23.00;;;11.00;;
62110;SDS011;48102;47.526;19.072;2023-12-20T07:45:55;19.48;;;11.30;;
62110;SDS011;48102;47.526;19.072;2023-12-20T07:52:01;31.95;;;11.85;;
62110;SDS011;48102;47.526;19.072;2023-12-20T07:55:04;27.33;;;11.73;;
62110;SDS011;48102;47.526;19.072;2023-12-20T07:58:08;22.52;;;11.60;;
62110;SDS011;48102;47.526;19.072;2023-12-20T08:01:11;26.50;;;11.90;;
62110;SDS011;48102;47.526;19.072;2023-12-20T08:04:15;23.83;;;12.23;;
62110;SDS011;48102;47.526;19.072;2023-12-20T08:10:21;25.75;;;13.23;;
62110;SDS011;48102;47.526;19.072;2023-12-20T08:13:24;18.48;;;11.60;;
62110;SDS011;48102;47.526;19.072;2023-12-20T08:16:28;20.20;;;11.70;;
62110;SDS011;48102;47.526;19.072;2023-12-20T08:19:31;23.10;;;13.52;;
62110;SDS011;48102;47.526;19.072;2023-12-20T08:22:34;19.12;;;12.20;;
62110;SDS011;48102;47.526;19.072;2023-12-20T08:25:37;20.83;;;12.02;;
62110;SDS011;48102;47.526;19.072;2023-12-20T08:28:40;24.12;;;13.27;;
62110;SDS011;48102;47.526;19.072;2023-12-20T08:31:43;22.00;;;11.38;;
62110;SDS011;48102;47.526;19.072;2023-12-20T08:34:46;19.05;;;12.48;;
62110;SDS011;48102;47.526;19.072;2023-12-20T08:37:49;16.12;;;11.40;;
62110;SDS011;48102;47.526;19.072;2023-12-20T08:40:52;21.48;;;12.55;;
62110;SDS011;48102;47.526;19.072;2023-12-20T08:43:55;21.17;;;13.15;;
62110;SDS011;48102;47.526;19.072;2023-12-20T08:46:57;20.40;;;12.68;;
62110;SDS011;48102;47.526;19.072;2023-12-20T08:50:00;25.02;;;13.25;;
62110;SDS011;48102;47.526;19.072;2023-12-20T08:53:05;24.65;;;14.15;;
62110;SDS011;48102;47.526;19.072;2023-12-20T08:56:07;23.98;;;14.38;;
62110;SDS011;48102;47.526;19.072;2023-12-20T09:02:14;25.55;;;13.35;;
62110;SDS011;48102;47.526;19.072;2023-12-20T09:05:18;27.77;;;14.45;;
62110;SDS011;48102;47.526;19.072;2023-12-20T09:08:21;24.95;;;14.45;;
62110;SDS011;48102;47.526;19.072;2023-12-20T09:11:24;24.55;;;14.38;;
62110;SDS011;48102;47.526;19.072;2023-12-20T09:14:27;23.98;;;13.70;;
62110;SDS011;48102;47.526;19.072;2023-12-20T09:17:30;28.15;;;16.12;;
62110;SDS011;48102;47.526;19.072;2023-12-20T09:20:36;27.80;;;15.38;;
62110;SDS011;48102;47.526;19.072;2023-12-20T09:23:44;25.50;;;14.98;;
62110;SDS011;48102;47.526;19.072;2023-12-20T09:26:46;33.38;;;16.25;;
62110;SDS011;48102;47.526;19.072;2023-12-20T09:32:52;24.55;;;14.87;;
62110;SDS011;48102;47.526;19.072;2023-12-20T09:38:58;27.30;;;14.45;;
62110;SDS011;48102;47.526;19.072;2023-12-20T09:42:02;27.83;;;15.38;;
62110;SDS011;48102;47.526;19.072;2023-12-20T09:45:09;30.55;;;16.48;;
62110;SDS011;48102;47.526;19.072;2023-12-20T09:48:16;32.00;;;16.12;;
62110;SDS011;48102;47.526;19.072;2023-12-20T09:51:20;29.05;;;16.58;;
62110;SDS011;48102;47.526;19.072;2023-12-20T09:57:26;23.57;;;14.60;;
62110;SDS011;48102;47.526;19.072;2023-12-20T10:00:29;22.55;;;14.13;;
62110;SDS011;48102;47.526;19.072;2023-12-20T10:03:32;27.92;;;15.93;;
62110;SDS011;48102;47.526;19.072;2023-12-20T10:06:36;29.33;;;16.42;;
62110;SDS011;48102;47.526;19.072;2023-12-20T10:09:39;29.98;;;16.48;;
62110;SDS011;48102;47.526;19.072;2023-12-20T10:13:06;22.98;;;14.52;;
62110;SDS011;48102;47.526;19.072;2023-12-20T10:16:08;23.80;;;15.80;;
62110;SDS011;48102;47.526;19.072;2023-12-20T10:22:14;31.67;;;15.63;;
62110;SDS011;48102;47.526;19.072;2023-12-20T10:28:20;30.20;;;17.17;;
62110;SDS011;48102;47.526;19.072;2023-12-20T10:31:26;27.48;;;16.60;;
62110;SDS011;48102;47.526;19.072;2023-12-20T10:34:32;29.50;;;18.77;;
62110;SDS011;48102;47.526;19.072;2023-12-20T10:37:38;31.23;;;17.45;;
62110;SDS011;48102;47.526;19.072;2023-12-20T10:40:42;30.15;;;17.85;;
62110;SDS011;48102;47.526;19.072;2023-12-20T10:43:47;32.25;;;18.02;;
62110;SDS011;48102;47.526;19.072;2023-12-20T10:46:50;28.77;;;17.35;;
62110;SDS011;48102;47.526;19.072;2023-12-20T10:49:54;32.65;;;18.62;;
62110;SDS011;48102;47.526;19.072;2023-12-20T10:52:58;33.50;;;19.20;;
62110;SDS011;48102;47.526;19.072;2023-12-20T10:56:02;32.50;;;19.15;;
62110;SDS011;48102;47.526;19.072;2023-12-20T10:59:06;35.35;;;18.73;;
62110;SDS011;48102;47.526;19.072;2023-12-20T11:02:12;29.15;;;17.65;;
62110;SDS011;48102;47.526;19.072;2023-12-20T11:05:19;30.52;;;18.90;;
62110;SDS011;48102;47.526;19.072;2023-12-20T11:15:08;35.30;;;18.08;;
62110;SDS011;48102;47.526;19.072;2023-12-20T11:18:15;32.33;;;18.52;;
62110;SDS011;48102;47.526;19.072;2023-12-20T11:21:18;30.95;;;19.52;;
62110;SDS011;48102;47.526;19.072;2023-12-20T11:27:27;34.13;;;18.77;;
62110;SDS011;48102;47.526;19.072;2023-12-20T11:33:42;39.90;;;20.15;;
62110;SDS011;48102;47.526;19.072;2023-12-20T11:36:46;39.65;;;22.50;;
62110;SDS011;48102;47.526;19.072;2023-12-20T11:39:55;40.75;;;22.35;;
62110;SDS011;48102;47.526;19.072;2023-12-20T11:43:03;44.03;;;22.27;;
62110;SDS011;48102;47.526;19.072;2023-12-20T11:46:10;42.70;;;21.67;;
62110;SDS011;48102;47.526;19.072;2023-12-20T11:49:14;42.83;;;22.62;;
62110;SDS011;48102;47.526;19.072;2023-12-20T11:55:22;48.78;;;22.73;;
62110;SDS011;48102;47.526;19.072;2023-12-20T11:58:26;45.17;;;22.48;;
62110;SDS011;48102;47.526;19.072;2023-12-20T12:01:31;37.17;;;20.30;;
62110;SDS011;48102;47.526;19.072;2023-12-20T12:04:34;39.47;;;21.80;;
62110;SDS011;48102;47.526;19.072;2023-12-20T12:10:40;30.17;;;16.83;;
62110;SDS011;48102;47.526;19.072;2023-12-20T12:13:43;21.02;;;13.02;;
62110;SDS011;48102;47.526;19.072;2023-12-20T12:16:46;15.75;;;11.30;;
62110;SDS011;48102;47.526;19.072;2023-12-20T12:19:49;17.15;;;11.73;;
62110;SDS011;48102;47.526;19.072;2023-12-20T12:23:01;14.27;;;10.27;;
62110;SDS011;48102;47.526;19.072;2023-12-20T12:26:05;15.55;;;10.82;;
62110;SDS011;48102;47.526;19.072;2023-12-20T12:29:09;14.32;;;9.32;;
62110;SDS011;48102;47.526;19.072;2023-12-20T12:32:12;13.45;;;9.18;;
62110;SDS011;48102;47.526;19.072;2023-12-20T12:35:15;13.18;;;8.05;;
62110;SDS011;48102;47.526;19.072;2023-12-20T12:38:22;13.57;;;8.38;;
62110;SDS011;48102;47.526;19.072;2023-12-20T12:41:26;10.73;;;7.55;;
62110;SDS011;48102;47.526;19.072;2023-12-20T12:44:31;10.23;;;7.20;;
62110;SDS011;48102;47.526;19.072;2023-12-20T12:50:37;9.82;;;6.50;;
62110;SDS011;48102;47.526;19.072;2023-12-20T12:53:40;11.63;;;7.70;;
62110;SDS011;48102;47.526;19.072;2023-12-20T12:56:43;10.02;;;7.45;;
62110;SDS011;48102;47.526;19.072;2023-12-20T12:59:49;9.43;;;7.43;;
62110;SDS011;48102;47.526;19.072;2023-12-20T13:02:52;8.80;;;6.50;;
62110;SDS011;48102;47.526;19.072;2023-12-20T13:08:58;7.78;;;6.50;;
62110;SDS011;48102;47.526;19.072;2023-12-20T13:12:02;10.00;;;6.40;;
62110;SDS011;48102;47.526;19.072;2023-12-20T13:15:06;10.57;;;6.82;;
62110;SDS011;48102;47.526;19.072;2023-12-20T13:18:10;9.95;;;7.18;;
62110;SDS011;48102;47.526;19.072;2023-12-20T13:21:12;11.00;;;6.97;;
62110;SDS011;48102;47.526;19.072;2023-12-20T13:27:18;8.10;;;5.47;;
62110;SDS011;48102;47.526;19.072;2023-12-20T13:30:22;11.90;;;5.87;;
62110;SDS011;48102;47.526;19.072;2023-12-20T13:33:24;12.40;;;6.20;;
62110;SDS011;48102;47.526;19.072;2023-12-20T13:36:28;7.97;;;6.10;;
62110;SDS011;48102;47.526;19.072;2023-12-20T13:39:30;8.65;;;5.93;;
62110;SDS011;48102;47.526;19.072;2023-12-20T13:42:34;10.27;;;7.00;;
62110;SDS011;48102;47.526;19.072;2023-12-20T13:45:37;10.70;;;6.25;;
62110;SDS011;48102;47.526;19.072;2023-12-20T13:48:40;9.48;;;7.05;;
62110;SDS011;48102;47.526;19.072;2023-12-20T13:51:42;8.82;;;6.55;;
62110;SDS011;48102;47.526;19.072;2023-12-20T13:54:45;11.30;;;7.57;;
62110;SDS011;48102;47.526;19.072;2023-12-20T13:57:48;9.88;;;6.93;;
62110;SDS011;48102;47.526;19.072;2023-12-20T14:00:57;9.95;;;6.78;;
62110;SDS011;48102;47.526;19.072;2023-12-20T14:04:01;10.80;;;7.00;;
62110;SDS011;48102;47.526;19.072;2023-12-20T14:07:04;8.82;;;6.22;;
62110;SDS011;48102;47.526;19.072;2023-12-20T14:10:07;7.78;;;6.12;;
62110;SDS011;48102;47.526;19.072;2023-12-20T14:16:13;7.85;;;6.22;;
62110;SDS011;48102;47.526;19.072;2023-12-20T14:19:17;10.30;;;6.80;;
62110;SDS011;48102;47.526;19.072;2023-12-20T14:22:20;9.55;;;6.45;;
62110;SDS011;48102;47.526;19.072;2023-12-20T14:25:23;11.88;;;6.50;;
62110;SDS011;48102;47.526;19.072;2023-12-20T14:31:29;7.87;;;5.57;;
62110;SDS011;48102;47.526;19.072;2023-12-20T14:34:32;8.60;;;5.80;;
62110;SDS011;48102;47.526;19.072;2023-12-20T14:37:35;8.57;;;5.37;;
62110;SDS011;48102;47.526;19.072;2023-12-20T14:40:42;7.20;;;5.00;;
62110;SDS011;48102;47.526;19.072;2023-12-20T14:43:44;7.45;;;5.55;;
62110;SDS011;48102;47.526;19.072;2023-12-20T14:46:50;8.13;;;5.78;;
62110;SDS011;48102;47.526;19.072;2023-12-20T14:49:53;6.78;;;4.72;;
62110;SDS011;48102;47.526;19.072;2023-12-20T14:52:56;5.40;;;4.62;;
62110;SDS011;48102;47.526;19.072;2023-12-20T14:55:59;6.50;;;4.25;;
62110;SDS011;48102;47.526;19.072;2023-12-20T15:02:05;7.22;;;4.35;;
62110;SDS011;48102;47.526;19.072;2023-12-20T15:05:08;6.15;;;4.50;;
62110;SDS011;48102;47.526;19.072;2023-12-20T15:08:11;7.18;;;5.43;;
62110;SDS011;48102;47.526;19.072;2023-12-20T15:11:14;8.30;;;5.22;;
62110;SDS011;48102;47.526;19.072;2023-12-20T15:14:17;7.97;;;5.47;;
62110;SDS011;48102;47.526;19.072;2023-12-20T15:17:23;7.87;;;5.40;;
62110;SDS011;48102;47.526;19.072;2023-12-20T15:20:28;7.50;;;6.15;;
62110;SDS011;48102;47.526;19.072;2023-12-20T15:23:31;6.93;;;5.75;;
62110;SDS011;48102;47.526;19.072;2023-12-20T15:26:37;9.88;;;5.85;;
62110;SDS011;48102;47.526;19.072;2023-12-20T15:29:41;7.80;;;5.78;;
62110;SDS011;48102;47.526;19.072;2023-12-20T15:32:44;8.45;;;5.53;;
62110;SDS011;48102;47.526;19.072;2023-12-20T15:35:47;7.93;;;5.93;;
62110;SDS011;48102;47.526;19.072;2023-12-20T15:38:50;7.93;;;6.00;;
62110;SDS011;48102;47.526;19.072;2023-12-20T15:41:53;10.13;;;5.82;;
62110;SDS011;48102;47.526;19.072;2023-12-20T15:44:56;8.73;;;5.70;;
62110;SDS011;48102;47.526;19.072;2023-12-20T15:47:59;8.48;;;5.22;;
62110;SDS011;48102;47.526;19.072;2023-12-20T15:51:05;8.07;;;5.47;;
62110;SDS011;48102;47.526;19.072;2023-12-20T15:54:08;9.27;;;6.03;;
62110;SDS011;48102;47.526;19.072;2023-12-20T15:57:11;9.10;;;7.03;;
62110;SDS011;48102;47.526;19.072;2023-12-20T16:03:17;9.02;;;5.72;;
62110;SDS011;48102;47.526;19.072;2023-12-20T16:06:27;9.45;;;6.53;;
62110;SDS011;48102;47.526;19.072;2023-12-20T16:12:33;9.10;;;5.97;;
62110;SDS011;48102;47.526;19.072;2023-12-20T16:15:36;9.95;;;6.12;;
62110;SDS011;48102;47.526;19.072;2023-12-20T16:18:38;8.85;;;6.47;;
62110;SDS011;48102;47.526;19.072;2023-12-20T16:21:43;8.00;;;5.55;;
62110;SDS011;48102;47.526;19.072;2023-12-20T16:24:45;10.05;;;6.18;;
